createdAt,value
2018-06-28T00:00:09.227Z,102036.16
2018-06-28T00:02:37.620Z,102030.51
2018-06-28T00:05:05.971Z,102030.02
2018-06-28T00:07:34.315Z,102034.37
2018-06-28T00:10:03.373Z,102030.39
2018-06-28T00:12:31.730Z,102028.81
2018-06-28T00:15:00.097Z,102029.25
2018-06-28T00:17:28.426Z,102029.73
2018-06-28T00:19:56.780Z,102031.36
2018-06-28T00:22:25.127Z,102018.69
2018-06-28T00:24:53.506Z,102023.37
2018-06-28T00:27:21.859Z,102020.72
2018-06-28T00:29:50.220Z,102019.07
2018-06-28T00:32:18.571Z,102024.06
2018-06-28T00:34:46.896Z,102030.27
2018-06-28T00:37:15.247Z,102024.55
2018-06-28T00:39:43.609Z,102017.59
2018-06-28T00:42:11.954Z,102019.05
2018-06-28T00:44:40.310Z,102022.52
2018-06-28T00:47:08.719Z,102020.09
2018-06-28T00:49:37.067Z,102020.23
2018-06-28T00:52:05.413Z,102024.69
2018-06-28T00:54:33.792Z,102020.03
2018-06-28T00:57:02.173Z,102020.13
2018-06-28T00:59:30.515Z,102013.66
2018-06-28T01:01:58.916Z,102015.98
2018-06-28T01:04:27.265Z,102014.08
2018-06-28T01:06:55.590Z,102005.44
2018-06-28T01:09:23.952Z,102001.05
2018-06-28T01:11:52.300Z,101994.61
2018-06-28T01:14:20.625Z,102000.91
2018-06-28T01:16:48.976Z,101994.28
2018-06-28T01:19:17.307Z,101990.20
2018-06-28T01:21:45.634Z,101986.30
2018-06-28T01:24:13.974Z,101984.06
2018-06-28T01:26:42.343Z,101989.02
2018-06-28T01:29:10.692Z,101994.31
2018-06-28T01:31:39.047Z,101991.20
2018-06-28T01:34:07.409Z,101988.06
2018-06-28T01:36:35.762Z,101992.27
2018-06-28T01:39:06.756Z,101988.73
2018-06-28T01:41:46.353Z,101990.09
2018-06-28T01:44:14.720Z,101984.38
2018-06-28T01:46:43.077Z,101994.75
2018-06-28T01:49:11.450Z,101980.36
2018-06-28T01:51:39.817Z,101982.30
2018-06-28T01:54:08.171Z,101989.95
2018-06-28T01:56:36.522Z,101981.88
2018-06-28T01:59:04.836Z,101988.13
2018-06-28T02:01:33.173Z,101976.80
2018-06-28T02:04:01.501Z,101976.21
2018-06-28T02:06:29.828Z,101969.61
2018-06-28T02:08:58.160Z,101974.62
2018-06-28T02:11:26.492Z,101975.36
2018-06-28T02:13:54.818Z,101973.86
2018-06-28T02:16:23.183Z,101966.59
2018-06-28T02:18:51.540Z,101972.56
2018-06-28T02:21:19.852Z,101965.39
2018-06-28T02:23:48.180Z,101957.64
2018-06-28T02:26:16.574Z,101963.25
2018-06-28T02:28:44.888Z,101961.47
2018-06-28T02:31:13.211Z,101958.37
2018-06-28T02:33:41.528Z,101960.36
2018-06-28T02:36:09.871Z,101959.49
2018-06-28T02:38:38.209Z,101961.87
2018-06-28T02:41:06.728Z,101956.94
2018-06-28T02:43:35.072Z,101952.81
2018-06-28T02:46:03.472Z,101949.52
2018-06-28T02:48:31.816Z,101941.38
2018-06-28T02:51:00.153Z,101944.19
2018-06-28T02:53:28.488Z,101944.89
2018-06-28T02:55:56.829Z,101945.46
2018-06-28T02:58:25.173Z,101940.09
2018-06-28T03:00:53.510Z,101942.81
2018-06-28T03:03:21.885Z,101938.25
2018-06-28T03:05:50.218Z,101939.86
2018-06-28T03:08:18.544Z,101941.03
2018-06-28T03:10:46.976Z,101950.13
2018-06-28T03:13:15.345Z,101943.11
2018-06-28T03:15:43.710Z,101935.84
2018-06-28T03:18:12.176Z,101937.36
2018-06-28T03:20:40.515Z,101936.00
2018-06-28T03:23:08.830Z,101940.41
2018-06-28T03:25:37.175Z,101940.89
2018-06-28T03:28:05.523Z,101946.46
2018-06-28T03:30:33.841Z,101944.77
2018-06-28T03:33:02.185Z,101941.34
2018-06-28T03:35:30.594Z,101947.72
2018-06-28T03:37:59.043Z,101944.53
2018-06-28T03:40:27.287Z,101939.92
2018-06-28T03:42:55.635Z,101945.20
2018-06-28T03:45:24.060Z,101944.95
2018-06-28T03:47:52.420Z,101946.61
2018-06-28T03:50:20.769Z,101941.34
2018-06-28T03:52:49.114Z,101934.98
2018-06-28T03:55:17.429Z,101934.80
2018-06-28T03:57:45.785Z,101941.19
2018-06-28T04:00:14.116Z,101941.58
2018-06-28T04:02:42.483Z,101938.72
2018-06-28T04:05:10.839Z,101936.97
2018-06-28T04:07:39.165Z,101938.81
2018-06-28T04:10:07.513Z,101935.61
2018-06-28T04:12:35.870Z,101939.11
2018-06-28T04:15:04.245Z,101940.47
2018-06-28T04:17:32.567Z,101935.61
2018-06-28T04:20:00.920Z,101946.95
2018-06-28T04:22:30.613Z,101944.77
2018-06-28T04:24:59.455Z,101939.68
2018-06-28T04:27:28.578Z,101942.55
2018-06-28T04:29:56.860Z,101934.73
2018-06-28T04:32:25.469Z,101935.04
2018-06-28T04:34:53.810Z,101943.99
2018-06-28T04:37:22.120Z,101934.89
2018-06-28T04:39:50.453Z,101938.66
2018-06-28T04:42:18.790Z,101941.61
2018-06-28T04:44:47.160Z,101941.03
2018-06-28T04:47:15.483Z,101940.48
2018-06-28T04:49:43.984Z,101934.84
2018-06-28T04:52:12.349Z,101935.47
2018-06-28T04:54:41.496Z,101940.36
2018-06-28T04:57:09.965Z,101936.33
2018-06-28T04:59:38.316Z,101927.48
2018-06-28T05:02:06.880Z,101934.02
2018-06-28T05:04:35.252Z,101926.34
2018-06-28T05:07:03.607Z,101932.88
2018-06-28T05:09:31.945Z,101933.98
2018-06-28T05:12:00.285Z,101938.83
2018-06-28T05:14:28.649Z,101930.27
2018-06-28T05:16:56.996Z,101929.91
2018-06-28T05:19:25.334Z,101924.31
2018-06-28T05:21:53.664Z,101925.95
2018-06-28T05:24:22.020Z,101922.95
2018-06-28T05:26:50.356Z,101927.09
2018-06-28T05:29:18.832Z,101924.42
2018-06-28T05:31:47.085Z,101925.24
2018-06-28T05:34:15.460Z,101924.70
2018-06-28T05:36:43.809Z,101919.47
2018-06-28T05:39:12.516Z,101913.80
2018-06-28T05:41:40.873Z,101918.72
2018-06-28T05:44:09.215Z,101917.28
2018-06-28T05:46:37.565Z,101914.39
2018-06-28T05:49:05.939Z,101905.93
2018-06-28T05:51:34.297Z,101911.39
2018-06-28T05:54:02.702Z,101912.78
2018-06-28T05:56:31.050Z,101907.16
2018-06-28T05:58:59.383Z,101901.13
2018-06-28T06:01:27.954Z,101903.93
2018-06-28T06:03:56.468Z,101902.48
2018-06-28T06:06:24.844Z,101900.50
2018-06-28T06:08:53.240Z,101894.81
2018-06-28T06:11:21.600Z,101891.36
2018-06-28T06:13:49.934Z,101896.80
2018-06-28T06:16:18.289Z,101896.88
2018-06-28T06:18:46.666Z,101893.09
2018-06-28T06:21:15.015Z,101888.89
2018-06-28T06:23:43.391Z,101888.19
2018-06-28T06:26:11.804Z,101887.22
2018-06-28T06:28:40.184Z,101886.19
2018-06-28T06:31:08.525Z,101881.37
2018-06-28T06:33:36.900Z,101880.40
2018-06-28T06:36:05.628Z,101878.09
2018-06-28T06:38:34.034Z,101871.51
2018-06-28T06:41:02.427Z,101874.11
2018-06-28T06:43:30.793Z,101872.90
2018-06-28T06:45:59.246Z,101869.31
2018-06-28T06:48:27.591Z,101865.64
2018-06-28T06:50:55.936Z,101861.13
2018-06-28T06:53:24.322Z,101860.64
2018-06-28T06:55:52.687Z,101856.34
2018-06-28T06:58:21.465Z,101853.63
2018-06-28T07:00:49.828Z,101846.21
2018-06-28T07:03:18.175Z,101839.52
2018-06-28T07:05:46.511Z,101839.17
2018-06-28T07:08:15.482Z,101837.61
2018-06-28T07:10:43.824Z,101833.78
2018-06-28T07:13:12.168Z,101824.97
2018-06-28T07:15:40.557Z,101827.75
2018-06-28T07:18:09.023Z,101816.20
2018-06-28T07:20:37.388Z,101811.52
2018-06-28T07:23:06.085Z,101807.52
2018-06-28T07:25:34.436Z,101813.16
2018-06-28T07:28:02.739Z,101804.59
2018-06-28T07:30:31.096Z,101796.98
2018-06-28T07:32:59.483Z,101799.57
2018-06-28T07:35:27.903Z,101796.16
2018-06-28T07:37:56.268Z,101793.77
2018-06-28T07:40:24.862Z,101788.70
2018-06-28T07:42:53.366Z,101784.17
2018-06-28T07:45:21.724Z,101782.03
2018-06-28T07:47:50.089Z,101773.30
2018-06-28T07:50:18.462Z,101777.82
2018-06-28T07:52:46.883Z,101779.03
2018-06-28T07:55:15.291Z,101771.08
2018-06-28T07:57:44.192Z,101769.22
2018-06-28T08:00:12.540Z,101761.67
2018-06-28T08:02:41.019Z,101766.87
2018-06-28T08:05:09.391Z,101765.00
2018-06-28T08:07:37.730Z,101765.84
2018-06-28T08:10:06.086Z,101762.70
2018-06-28T08:12:34.435Z,101756.70
2018-06-28T08:15:02.839Z,101757.39
2018-06-28T08:17:31.191Z,101756.09
2018-06-28T08:19:59.522Z,101745.67
2018-06-28T08:22:27.892Z,101742.77
2018-06-28T08:24:56.357Z,101740.53
2018-06-28T08:27:24.709Z,101742.25
2018-06-28T08:29:53.099Z,101741.36
2018-06-28T08:32:21.457Z,101729.45
2018-06-28T08:34:49.840Z,101737.61
2018-06-28T08:37:18.207Z,101730.31
2018-06-28T08:39:46.634Z,101726.91
2018-06-28T08:42:15.014Z,101727.86
2018-06-28T08:44:43.352Z,101722.11
2018-06-28T08:47:11.709Z,101729.05
2018-06-28T08:49:40.077Z,101732.34
2018-06-28T08:52:08.477Z,101733.96
2018-06-28T08:54:37.152Z,101735.72
2018-06-28T08:57:05.528Z,101721.70
2018-06-28T08:59:33.895Z,101727.17
2018-06-28T09:02:02.287Z,101722.44
2018-06-28T09:04:30.860Z,101721.28
2018-06-28T09:07:00.037Z,101715.06
2018-06-28T09:09:28.418Z,101716.69
2018-06-28T09:11:56.765Z,101714.94
2018-06-28T09:14:25.175Z,101705.19
2018-06-28T09:16:53.552Z,101710.88
2018-06-28T09:19:21.901Z,101697.72
2018-06-28T09:21:50.312Z,101698.67
2018-06-28T09:24:18.664Z,101704.59
2018-06-28T09:26:47.032Z,101696.91
2018-06-28T09:29:15.417Z,101701.41
2018-06-28T09:31:43.763Z,101692.64
2018-06-28T09:34:12.220Z,101693.73
2018-06-28T09:36:40.656Z,101684.68
2018-06-28T09:39:10.327Z,101686.70
2018-06-28T09:41:38.675Z,101683.42
2018-06-28T09:44:07.119Z,101687.61
2018-06-28T09:46:35.465Z,101678.08
2018-06-28T09:49:03.888Z,101674.52
2018-06-28T09:51:32.214Z,101671.46
2018-06-28T09:54:00.575Z,101672.35
2018-06-28T09:56:28.950Z,101670.14
2018-06-28T09:58:57.331Z,101671.31
2018-06-28T10:01:25.712Z,101666.48
2018-06-28T10:03:54.158Z,101670.89
2018-06-28T10:06:22.569Z,101664.98
2018-06-28T10:08:50.921Z,101665.11
2018-06-28T10:11:19.308Z,101665.98
2018-06-28T10:13:47.670Z,101673.01
2018-06-28T10:16:16.051Z,101669.20
2018-06-28T10:18:44.492Z,101665.13
2018-06-28T10:21:12.948Z,101667.30
2018-06-28T10:23:41.327Z,101652.91
2018-06-28T10:26:09.668Z,101661.92
2018-06-28T10:28:38.024Z,101669.01
2018-06-28T10:31:06.427Z,101657.12
2018-06-28T10:33:35.197Z,101648.19
2018-06-28T10:36:03.596Z,101641.77
2018-06-28T10:38:31.974Z,101638.97
2018-06-28T10:41:00.337Z,101637.17
2018-06-28T10:43:28.696Z,101643.72
2018-06-28T10:45:57.051Z,101630.09
2018-06-28T10:48:25.418Z,101633.27
2018-06-28T10:50:53.770Z,101629.19
2018-06-28T10:53:22.147Z,101620.47
2018-06-28T10:55:50.975Z,101618.61
2018-06-28T10:58:19.492Z,101618.81
2018-06-28T11:00:47.863Z,101604.62
2018-06-28T11:03:16.212Z,101617.95
2018-06-28T11:05:44.656Z,101623.73
2018-06-28T11:08:13.119Z,101619.36
2018-06-28T11:10:41.516Z,101625.97
2018-06-28T11:13:09.862Z,101611.44
2018-06-28T11:15:38.302Z,101611.75
2018-06-28T11:18:06.698Z,101607.98
2018-06-28T11:20:35.071Z,101606.22
2018-06-28T11:23:03.473Z,101601.33
2018-06-28T11:25:31.896Z,101606.64
2018-06-28T11:28:00.300Z,101600.77
2018-06-28T11:30:28.687Z,101600.77
2018-06-28T11:32:58.155Z,101592.42
2018-06-28T11:35:26.630Z,101596.55
2018-06-28T11:37:55.054Z,101591.91
2018-06-28T11:40:23.442Z,101592.57
2018-06-28T11:42:52.184Z,101587.05
2018-06-28T11:45:20.559Z,101581.73
2018-06-28T11:47:48.979Z,101577.13
2018-06-28T11:50:17.354Z,101573.66
2018-06-28T11:52:45.706Z,101562.95
2018-06-28T11:55:14.060Z,101566.94
2018-06-28T11:57:42.624Z,101567.95
2018-06-28T12:00:11.092Z,101560.45
2018-06-28T12:02:39.456Z,101566.25
2018-06-28T12:05:07.795Z,101562.00
2018-06-28T12:07:36.218Z,101556.45
2018-06-28T12:10:04.940Z,101551.38
2018-06-28T12:12:33.250Z,101553.06
2018-06-28T12:15:01.595Z,101555.68
2018-06-28T12:17:29.970Z,101551.77
2018-06-28T12:19:58.385Z,101542.66
2018-06-28T12:22:26.811Z,101541.52
2018-06-28T12:24:55.131Z,101551.84
2018-06-28T12:27:23.457Z,101544.56
2018-06-28T12:29:51.775Z,101543.56
2018-06-28T12:32:20.119Z,101546.73
2018-06-28T12:34:48.464Z,101530.89
2018-06-28T12:37:16.805Z,101533.00
2018-06-28T12:39:45.164Z,101530.76
2018-06-28T12:42:13.522Z,101529.58
2018-06-28T12:44:42.009Z,101534.89
2018-06-28T12:47:55.982Z,101537.80
2018-06-28T12:50:24.331Z,101527.33
2018-06-28T12:53:01.967Z,101526.94
2018-06-28T12:55:43.180Z,101530.48
2018-06-28T12:58:11.543Z,101528.77
2018-06-28T13:00:39.934Z,101517.39
2018-06-28T13:03:08.272Z,101517.87
2018-06-28T13:05:36.609Z,101516.05
2018-06-28T13:08:04.961Z,101518.16
2018-06-28T13:10:33.343Z,101518.27
2018-06-28T13:13:01.692Z,101522.75
2018-06-28T13:15:30.057Z,101511.08
2018-06-28T13:17:58.419Z,101515.59
2018-06-28T13:20:26.819Z,101511.77
2018-06-28T13:22:55.179Z,101505.41
2018-06-28T13:25:23.519Z,101503.30
2018-06-28T13:27:51.879Z,101500.16
2018-06-28T13:30:20.258Z,101501.54
2018-06-28T13:32:48.608Z,101498.00
2018-06-28T13:35:16.925Z,101493.50
2018-06-28T13:37:45.278Z,101494.30
2018-06-28T13:40:13.746Z,101496.78
2018-06-28T13:42:42.066Z,101490.68
2018-06-28T13:45:10.411Z,101492.92
2018-06-28T13:47:38.787Z,101486.89
2018-06-28T13:50:07.168Z,101481.41
2018-06-28T13:52:35.547Z,101474.28
2018-06-28T13:55:04.003Z,101465.28
2018-06-28T13:57:32.430Z,101474.00
2018-06-28T14:00:00.748Z,101460.91
2018-06-28T14:02:29.095Z,101462.45
2018-06-28T14:04:57.435Z,101456.80
2018-06-28T14:07:25.764Z,101462.72
2018-06-28T14:09:54.148Z,101459.24
2018-06-28T14:12:22.560Z,101453.82
2018-06-28T14:14:50.994Z,101447.18
2018-06-28T14:17:19.432Z,101438.50
2018-06-28T14:19:47.843Z,101445.67
2018-06-28T14:22:16.254Z,101449.16
2018-06-28T14:24:44.590Z,101449.36
2018-06-28T14:27:13.836Z,101453.63
2018-06-28T14:29:42.207Z,101453.59
2018-06-28T14:32:10.539Z,101445.19
2018-06-28T14:34:38.904Z,101445.22
2018-06-28T14:37:07.327Z,101446.05
2018-06-28T14:39:35.664Z,101438.06
2018-06-28T14:42:04.132Z,101430.06
2018-06-28T14:44:33.121Z,101428.92
2018-06-28T14:47:01.484Z,101431.41
2018-06-28T14:49:29.852Z,101430.48
2018-06-28T14:51:58.217Z,101429.14
2018-06-28T14:54:26.566Z,101434.20
2018-06-28T14:56:54.988Z,101439.41
2018-06-28T14:59:23.428Z,101447.37
2018-06-28T15:01:51.774Z,101441.79
2018-06-28T15:04:20.136Z,101448.25
2018-06-28T15:06:48.501Z,101445.16
2018-06-28T15:09:16.851Z,101448.51
2018-06-28T15:11:45.333Z,101440.85
2018-06-28T15:14:14.013Z,101439.59
2018-06-28T15:16:42.387Z,101443.56
2018-06-28T15:19:10.775Z,101438.95
2018-06-28T15:21:39.187Z,101440.68
2018-06-28T15:24:07.517Z,101434.60
2018-06-28T15:26:35.963Z,101437.45
2018-06-28T15:29:04.441Z,101435.08
2018-06-28T15:31:32.783Z,101440.98
2018-06-28T15:34:01.175Z,101427.59
2018-06-28T15:36:29.553Z,101433.44
2018-06-28T15:38:58.200Z,101434.09
2018-06-28T15:41:26.566Z,101425.22
2018-06-28T15:43:54.933Z,101433.66
2018-06-28T15:46:23.576Z,101429.73
2018-06-28T15:48:51.947Z,101423.53
2018-06-28T15:51:20.313Z,101420.13
2018-06-28T15:53:48.771Z,101413.28
2018-06-28T15:56:17.145Z,101425.69
2018-06-28T15:58:45.500Z,101413.28
2018-06-28T16:01:13.856Z,101400.54
2018-06-28T16:03:42.520Z,101389.45
2018-06-28T16:06:10.878Z,101398.82
2018-06-28T16:08:39.367Z,101396.03
2018-06-28T16:11:07.742Z,101387.77
2018-06-28T16:13:36.114Z,101382.22
2018-06-28T16:16:04.491Z,101379.46
2018-06-28T16:18:33.282Z,101372.58
2018-06-28T16:21:01.641Z,101374.43
2018-06-28T16:23:30.034Z,101370.81
2018-06-28T16:25:58.414Z,101367.55
2018-06-28T16:28:26.797Z,101380.72
2018-06-28T16:30:55.173Z,101371.66
2018-06-28T16:33:23.568Z,101365.42
2018-06-28T16:35:51.933Z,101377.31
2018-06-28T16:38:20.282Z,101369.09
2018-06-28T16:40:48.817Z,101370.25
2018-06-28T16:43:18.021Z,101376.62
2018-06-28T16:45:46.376Z,101374.20
2018-06-28T16:48:14.734Z,101368.78
2018-06-28T16:50:43.100Z,101374.54
2018-06-28T16:53:11.486Z,101378.62
2018-06-28T16:55:40.122Z,101376.59
2018-06-28T16:58:09.303Z,101379.95
2018-06-28T17:00:37.671Z,101380.97
2018-06-28T17:03:06.075Z,101380.41
2018-06-28T17:05:34.555Z,101380.01
2018-06-28T17:08:03.019Z,101377.42
2018-06-28T17:10:31.395Z,101377.50
2018-06-28T17:12:59.747Z,101372.22
2018-06-28T17:15:28.080Z,101375.27
2018-06-28T17:17:56.440Z,101371.01
2018-06-28T17:20:24.884Z,101368.03
2018-06-28T17:22:53.729Z,101372.08
2018-06-28T17:25:22.076Z,101372.37
2018-06-28T17:27:50.631Z,101377.47
2018-06-28T17:30:18.966Z,101371.11
2018-06-28T17:32:47.397Z,101369.23
2018-06-28T17:35:16.264Z,101370.27
2018-06-28T17:37:44.657Z,101374.04
2018-06-28T17:40:13.052Z,101371.45
2018-06-28T17:42:41.392Z,101373.81
2018-06-28T17:45:09.765Z,101369.64
2018-06-28T17:47:38.178Z,101367.91
2018-06-28T17:50:06.527Z,101367.34
2018-06-28T17:52:34.895Z,101363.89
2018-06-28T17:55:03.357Z,101366.58
2018-06-28T17:57:31.736Z,101375.31
2018-06-28T18:00:00.176Z,101379.43
2018-06-28T18:02:28.554Z,101387.55
2018-06-28T18:04:56.965Z,101389.44
2018-06-28T18:07:25.295Z,101385.31
2018-06-28T18:09:53.618Z,101384.04
2018-06-28T18:12:21.969Z,101384.39
2018-06-28T18:14:50.378Z,101381.23
2018-06-28T18:17:18.727Z,101374.45
2018-06-28T18:19:47.105Z,101370.81
2018-06-28T18:22:15.453Z,101376.63
2018-06-28T18:24:43.815Z,101381.00
2018-06-28T18:27:12.201Z,101383.39
2018-06-28T18:29:40.548Z,101387.73
2018-06-28T18:32:08.871Z,101377.96
2018-06-28T18:34:37.306Z,101381.16
2018-06-28T18:37:05.788Z,101377.05
2018-06-28T18:39:34.137Z,101381.90
2018-06-28T18:42:02.485Z,101377.50
2018-06-28T18:44:30.928Z,101383.85
2018-06-28T18:46:59.278Z,101380.88
2018-06-28T18:49:27.606Z,101379.78
2018-06-28T18:51:56.078Z,101381.67
2018-06-28T18:54:24.525Z,101380.73
2018-06-28T18:56:52.946Z,101384.55
2018-06-28T18:59:21.407Z,101388.31
2018-06-28T19:01:49.785Z,101386.01
2018-06-28T19:04:18.136Z,101391.42
2018-06-28T19:06:46.532Z,101394.37
2018-06-28T19:09:14.838Z,101391.19
2018-06-28T19:11:43.231Z,101393.83
2018-06-28T19:14:17.099Z,101396.57
2018-06-28T19:16:50.866Z,101398.28
2018-06-28T19:19:19.220Z,101400.34
2018-06-28T19:21:52.931Z,101407.47
2018-06-28T19:24:21.243Z,101409.11
2018-06-28T19:26:49.707Z,101407.42
2018-06-28T19:29:23.255Z,101408.98
2018-06-28T19:31:56.960Z,101419.75
2018-06-28T19:34:25.290Z,101419.00
2018-06-28T19:36:54.283Z,101417.70
2018-06-28T19:39:27.874Z,101416.66
2018-06-28T19:42:01.566Z,101419.52
2018-06-28T19:44:30.736Z,101417.43
2018-06-28T19:46:59.085Z,101422.17
2018-06-28T19:49:32.735Z,101418.62
2018-06-28T19:52:06.234Z,101416.55
2018-06-28T19:54:34.910Z,101416.46
2018-06-28T19:57:03.365Z,101417.64
2018-06-28T19:59:35.895Z,101418.66
2018-06-28T20:02:09.631Z,101407.36
2018-06-28T20:04:43.285Z,101414.98
2018-06-28T20:07:11.734Z,101411.57
2018-06-28T20:09:40.078Z,101411.06
2018-06-28T20:12:12.540Z,101409.20
2018-06-28T20:14:46.226Z,101414.13
2018-06-28T20:17:19.919Z,101410.69
2018-06-28T20:19:53.751Z,101409.36
2018-06-28T20:22:22.098Z,101409.62
2018-06-28T20:24:50.713Z,101406.49
2018-06-28T20:27:24.380Z,101405.92
2018-06-28T20:29:58.090Z,101401.21
2018-06-28T20:32:31.931Z,101406.47
2018-06-28T20:35:00.407Z,101403.27
2018-06-28T20:37:28.788Z,101408.09
2018-06-28T20:39:57.132Z,101412.88
2018-06-28T20:42:25.543Z,101407.55
2018-06-28T20:44:53.897Z,101412.41
2018-06-28T20:47:22.232Z,101419.75
2018-06-28T20:49:50.663Z,101417.16
2018-06-28T20:52:19.032Z,101409.70
2018-06-28T20:54:47.419Z,101423.13
2018-06-28T20:57:15.831Z,101419.66
2018-06-28T20:59:44.199Z,101417.94
2018-06-28T21:02:12.543Z,101418.06
2018-06-28T21:04:40.921Z,101416.34
2018-06-28T21:07:09.270Z,101421.19
2018-06-28T21:09:37.653Z,101416.94
2018-06-28T21:12:06.115Z,101413.45
2018-06-28T21:14:34.472Z,101423.14
2018-06-28T21:17:02.851Z,101423.02
2018-06-28T21:19:31.204Z,101428.38
2018-06-28T21:21:59.547Z,101427.77
2018-06-28T21:24:27.857Z,101422.05
2018-06-28T21:26:56.200Z,101426.80
2018-06-28T21:29:24.525Z,101432.73
2018-06-28T21:31:52.876Z,101427.40
2018-06-28T21:34:21.678Z,101427.02
2018-06-28T21:36:50.064Z,101432.49
2018-06-28T21:39:18.370Z,101431.77
2018-06-28T21:41:46.702Z,101433.86
2018-06-28T21:44:15.129Z,101426.17
2018-06-28T21:46:43.454Z,101433.47
2018-06-28T21:49:11.776Z,101435.83
2018-06-28T21:51:40.095Z,101434.70
2018-06-28T21:54:08.406Z,101441.67
2018-06-28T21:56:36.899Z,101439.12
2018-06-28T21:59:05.233Z,101433.66
2018-06-28T22:01:33.575Z,101432.66
2018-06-28T22:04:01.875Z,101436.89
2018-06-28T22:06:30.196Z,101436.26
2018-06-28T22:08:58.574Z,101430.16
2018-06-28T22:11:26.891Z,101432.99
2018-06-28T22:13:55.365Z,101435.59
2018-06-28T22:16:23.677Z,101435.98
2018-06-28T22:18:51.994Z,101431.89
2018-06-28T22:21:20.295Z,101432.09
2018-06-28T22:23:48.606Z,101429.49
2018-06-28T22:26:16.954Z,101427.39
2018-06-28T22:28:45.270Z,101430.13
2018-06-28T22:31:13.612Z,101430.35
2018-06-28T22:33:41.931Z,101430.35
2018-06-28T22:36:10.268Z,101426.98
2018-06-28T22:38:38.577Z,101428.72
2018-06-28T22:41:07.154Z,101423.48
2018-06-28T22:43:35.523Z,101424.84
2018-06-28T22:46:03.916Z,101421.20
2018-06-28T22:48:32.470Z,101419.11
2018-06-28T22:51:00.790Z,101417.23
2018-06-28T22:53:29.735Z,101411.64
2018-06-28T22:55:58.052Z,101416.59
2018-06-28T22:58:26.395Z,101415.59
2018-06-28T23:00:54.740Z,101408.00
2018-06-28T23:03:23.061Z,101406.81
2018-06-28T23:05:51.565Z,101406.55
2018-06-28T23:08:19.916Z,101399.48
2018-06-28T23:10:48.291Z,101402.58
2018-06-28T23:13:16.666Z,101405.66
2018-06-28T23:15:44.982Z,101410.60
2018-06-28T23:18:13.325Z,101408.61
2018-06-28T23:20:41.765Z,101411.42
2018-06-28T23:23:10.131Z,101415.36
2018-06-28T23:25:38.481Z,101419.30
2018-06-28T23:28:06.818Z,101418.94
2018-06-28T23:30:35.191Z,101416.56
2018-06-28T23:33:03.586Z,101411.95
2018-06-28T23:35:31.910Z,101411.30
2018-06-28T23:38:00.336Z,101414.89
2018-06-28T23:40:28.698Z,101410.59
2018-06-28T23:42:57.093Z,101413.81
2018-06-28T23:45:25.818Z,101402.67
2018-06-28T23:47:54.243Z,101405.62
2018-06-28T23:50:22.564Z,101403.48
2018-06-28T23:52:50.884Z,101403.58
2018-06-28T23:55:19.636Z,101395.98
2018-06-28T23:57:48.117Z,101389.67
